Weather reports worldwide

Advertisment
Palacios de la Sierra, Spain (8149): temperature & dewpoint: 17.05.2019 14:00:00 - 23.05.2019 14:00:00 (CEST)Palacios de la Sierra, Spain (8149): wind speed & gusts: 17.05.2019 14:00:00 - 23.05.2019 14:00:00 (CEST)Palacios de la Sierra, Spain (8149): wind direction: 17.05.2019 14:00:00 - 23.05.2019 14:00:00 (CEST)Palacios de la Sierra, Spain (8149): visibility: 17.05.2019 14:00:00 - 23.05.2019 14:00:00 (CEST)Palacios de la Sierra, Spain (8149): sunshine duration: 17.05.2019 14:00:00 - 23.05.2019 14:00:00 (CEST)Palacios de la Sierra, Spain (8149): precipitation: 17.05.2019 14:00:00 - 23.05.2019 14:00:00 (CEST)
Date & Time tt [°C] td [°C] ff [km/h] ff [kn] fx [km/h] fx [kn] dd vv [km] sd [min] rr [mm]
23.05.2019 14:00:00 - - - - - - - - - -
23.05.2019 13:00:00 21,1 4,6 5 3 14 8 W 20 35 0,0
23.05.2019 12:00:00 20,3 5,1 5 3 13 7 ESE 20 54 0,0
23.05.2019 11:00:00 18,4 5,6 8 5 68 37 S 20 56 0,0
23.05.2019 10:00:00 16,6 5,8 10 5 16 8 ESE 20 35 0,0
23.05.2019 09:00:00 12,0 6,5 5 3 16 9 SSE 20 18 0,0
23.05.2019 08:00:00 9,6 4,6 6 3 18 10 SSE 20 0 -
23.05.2019 07:00:00 9,0 4,5 3 2 9 5 SSE 20 0 0,0
23.05.2019 06:00:00 8,3 3,9 5 3 13 7 SE 20 0 0,0
23.05.2019 05:00:00 9,1 3,9 10 5 18 10 ESE 20 0 0,0
23.05.2019 04:00:00 7,4 3,2 3 2 15 8 ESE 20 0 0,0
23.05.2019 03:00:00 8,2 3,6 4 2 22 12 SSE 20 0 0,0
23.05.2019 02:00:00 8,7 3,6 4 2 18 10 SSE 20 0 -
23.05.2019 01:00:00 9,3 3,9 9 5 18 10 SSE 20 0 0,0
23.05.2019 00:00:00 11,1 3,8 10 6 21 11 S 20 0 0,0
22.05.2019 23:00:00 12,9 4,1 4 2 9 5 E 20 0 0,0
22.05.2019 22:00:00 16,5 2,5 3 2 8 5 W 20 18 0,0
22.05.2019 21:00:00 18,6 2,5 6 4 16 9 WNW 20 5 0,0
22.05.2019 20:00:00 20,6 2,5 9 5 26 14 WNW 20 55 -
22.05.2019 19:00:00 21,7 2,9 7 4 29 16 NW 20 60 0,0
22.05.2019 18:00:00 22,3 3,4 13 7 33 18 WNW 20 60 0,0
22.05.2019 17:00:00 22,0 3,0 10 5 35 19 NNW 20 60 0,0
22.05.2019 16:00:00 21,2 2,5 13 7 30 16 NW 20 60 0,0
22.05.2019 15:00:00 20,8 3,4 13 7 34 18 WNW 20 60 0,0
22.05.2019 14:00:00 20,5 4,1 10 6 33 18 WNW 20 60 -
22.05.2019 13:00:00 19,1 2,5 18 10 33 18 W 20 60 0,0
22.05.2019 12:00:00 18,6 3,2 13 7 26 14 WNW 20 60 0,0
22.05.2019 11:00:00 17,3 3,2 7 4 13 7 NW 20 60 0,0
22.05.2019 10:00:00 14,0 4,3 4 2 8 5 NE 20 60 0,0
22.05.2019 09:00:00 9,3 3,4 2 1 - - WSW 20 60 0,0
22.05.2019 08:00:00 5,0 2,1 5 3 12 6 SSE 20 47 -
22.05.2019 07:00:00 2,8 0,6 5 3 12 6 ESE 20 0 0,0
22.05.2019 06:00:00 3,1 1,1 4 2 10 6 SE 20 0 0,0
22.05.2019 05:00:00 3,6 1,3 9 5 18 10 S 20 0 0,0
22.05.2019 04:00:00 4,7 1,9 5 3 16 9 SSE 20 0 0,0
22.05.2019 03:00:00 5,4 2,3 3 2 14 8 SSE 20 0 0,0
22.05.2019 02:00:00 6,1 2,5 6 3 13 7 SSE 20 0 -
22.05.2019 01:00:00 7,6 3,2 4 2 10 6 S 20 0 0,0
22.05.2019 00:00:00 10,7 3,4 7 4 14 8 S 20 0 0,0
21.05.2019 23:00:00 10,8 3,8 10 5 13 7 S 20 0 0,0
21.05.2019 22:00:00 12,7 3,0 7 4 62 34 S 20 22 0,0
21.05.2019 21:00:00 15,7 3,2 11 6 26 14 ESE 20 60 0,0
21.05.2019 20:00:00 18,4 2,7 10 5 29 15 E 19 54 -
21.05.2019 19:00:00 17,6 3,0 11 6 29 16 N 20 55 0,0
21.05.2019 18:00:00 20,2 2,5 16 9 31 17 WNW 20 60 0,0
21.05.2019 17:00:00 20,4 1,7 13 7 30 16 NW 20 58 0,0
21.05.2019 16:00:00 18,7 0,9 11 6 23 13 NNE 20 44 0,0
21.05.2019 15:00:00 19,8 2,1 7 4 24 13 WNW 20 58 0,0
21.05.2019 14:00:00 17,1 -0,7 6 4 22 12 E 20 40 -
21.05.2019 13:00:00 17,4 -0,5 5 3 17 9 ENE 20 59 0,0
21.05.2019 12:00:00 15,9 3,0 5 3 12 6 NW 20 60 0,0
21.05.2019 11:00:00 15,8 1,1 5 3 12 7 E 20 60 0,0
21.05.2019 10:00:00 12,1 3,0 2 1 7 4 NNE 20 60 0,0
21.05.2019 09:00:00 7,7 3,6 1 1 5 3 N 20 60 0,0
21.05.2019 08:00:00 4,5 1,9 1 1 6 3 ENE 20 45 -
21.05.2019 07:00:00 2,6 0,9 4 2 13 7 ESE 20 0 0,0
21.05.2019 06:00:00 2,9 1,1 4 2 14 8 SSE 20 0 0,0
21.05.2019 05:00:00 3,6 1,3 7 4 14 8 S 20 0 0,0
21.05.2019 04:00:00 4,8 1,9 3 2 10 5 ESE 20 0 0,0
21.05.2019 03:00:00 6,0 2,5 4 2 9 5 SSE 20 0 0,0
21.05.2019 02:00:00 6,8 2,7 1 1 10 6 E 20 0 -
21.05.2019 01:00:00 8,9 2,7 6 3 16 8 S 20 0 0,0
21.05.2019 00:00:00 8,9 2,7 9 5 14 8 SSW 20 0 0,0
20.05.2019 23:00:00 9,5 3,0 8 4 11 6 SSW 20 0 0,0
20.05.2019 22:00:00 11,4 3,2 5 3 13 7 S 20 0 0,0
20.05.2019 21:00:00 13,7 2,9 9 5 17 9 NNW 20 32 0,0
20.05.2019 20:00:00 16,6 -0,3 11 6 23 12 WNW 20 60 -
20.05.2019 19:00:00 17,4 -1,2 12 7 30 16 NW 20 55 0,0
20.05.2019 18:00:00 16,4 -0,3 5 3 31 17 W 20 44 0,0
20.05.2019 17:00:00 16,4 0,0 9 5 24 13 N 20 52 0,0
20.05.2019 16:00:00 16,7 -0,5 11 6 23 13 NW 20 55 0,0
20.05.2019 15:00:00 16,5 0,6 13 7 27 15 NW 20 59 0,0
20.05.2019 14:00:00 15,0 -1,2 9 5 28 15 NW 20 55 -
20.05.2019 13:00:00 14,9 -1,2 13 7 26 14 W 20 60 0,0
20.05.2019 12:00:00 14,1 1,1 8 5 19 11 NW 20 60 0,0
20.05.2019 11:00:00 12,4 1,5 4 2 11 6 E 20 60 0,0
20.05.2019 10:00:00 9,3 1,7 4 2 19 10 ENE 20 60 0,0
20.05.2019 09:00:00 5,5 1,7 3 2 - - ENE 20 60 0,0
20.05.2019 08:00:00 1,6 -0,5 - - - - - 20 47 -
20.05.2019 07:00:00 -1,0 -2,2 - - - - - 20 0 0,0
20.05.2019 06:00:00 -0,5 -1,4 2 1 15 8 ESE 20 0 0,0
20.05.2019 05:00:00 -1,1 -2,5 1 1 15 8 NE 20 0 0,0
20.05.2019 04:00:00 -0,4 -1,7 1 1 4 2 W 20 0 0,0
20.05.2019 03:00:00 0,3 -1,0 1 1 4 2 W 20 0 0,0
20.05.2019 02:00:00 1,3 -0,5 1 1 4 2 E 20 0 -
20.05.2019 01:00:00 2,4 0,2 3 2 11 6 WNW 20 0 0,0
20.05.2019 00:00:00 5,1 1,1 8 4 11 6 SSW 20 0 0,0
19.05.2019 23:00:00 5,8 1,3 8 4 12 7 S 20 0 0,0
19.05.2019 22:00:00 7,4 1,9 3 2 14 7 SSW 20 19 0,0
19.05.2019 21:00:00 9,6 1,5 5 3 11 6 WNW 20 8 0,0
19.05.2019 20:00:00 9,7 1,1 8 5 26 14 N 20 26 -
19.05.2019 19:00:00 11,5 2,3 11 6 26 14 NNW 20 57 0,0
19.05.2019 18:00:00 10,9 3,2 13 7 40 22 N 20 25 0,0
19.05.2019 17:00:00 11,0 1,5 12 7 30 16 NW 20 5 0,0
19.05.2019 16:00:00 12,0 2,1 11 6 28 15 NNW 20 43 0,0
19.05.2019 15:00:00 11,0 2,3 19 11 - - NNW 20 26 0,0
19.05.2019 14:00:00 9,8 3,0 13 7 31 17 NW 20 1 -
19.05.2019 13:00:00 8,0 2,5 13 7 26 14 NW 20 0 0,0
19.05.2019 12:00:00 8,1 1,9 13 7 63 34 WNW 20 20 0,0
19.05.2019 11:00:00 8,0 2,3 16 8 26 14 W 20 34 0,0
19.05.2019 10:00:00 6,9 2,9 10 5 - - W 20 7 0,0
19.05.2019 09:00:00 5,2 2,5 8 4 - - WNW 20 0 0,0
19.05.2019 08:00:00 4,3 1,9 9 5 22 12 WNW 20 0 -
19.05.2019 07:00:00 3,9 1,3 8 4 25 13 WNW 20 0 0,0
19.05.2019 06:00:00 3,6 1,1 10 5 21 11 NW 20 0 0,0
19.05.2019 05:00:00 2,9 0,9 6 4 19 10 NW 20 0 0,0
19.05.2019 04:00:00 0,9 -0,5 6 3 17 9 NW 20 0 0,0
19.05.2019 03:00:00 1,0 -0,5 2 1 7 4 W 20 0 0,0
19.05.2019 02:00:00 2,2 0,2 3 2 11 6 SW 20 0 -
19.05.2019 01:00:00 3,1 1,1 4 2 10 5 SW 20 0 0,0
19.05.2019 00:00:00 4,0 1,3 7 4 11 6 SW 20 0 0,0
18.05.2019 23:00:00 4,4 1,5 4 2 12 7 WSW 20 0 0,0
18.05.2019 22:00:00 4,8 2,3 10 5 51 28 NW 20 0 0,2
18.05.2019 21:00:00 7,5 2,1 7 4 - - WNW 20 0 0,0
18.05.2019 20:00:00 8,2 1,3 14 7 36 20 NW 20 0 -
18.05.2019 19:00:00 8,2 1,3 21 11 - - WNW 20 0 0,0
18.05.2019 18:00:00 8,6 2,5 21 12 - - NW 20 6 0,0
18.05.2019 17:00:00 10,7 1,3 26 14 - - WNW 20 38 0,0
18.05.2019 16:00:00 10,0 3,2 13 7 46 25 NW 20 27 0,4
18.05.2019 15:00:00 10,1 3,2 13 7 48 26 NNW 15 42 0,0
18.05.2019 14:00:00 10,7 2,9 19 11 39 21 NW 20 50 -
18.05.2019 13:00:00 9,9 2,3 18 10 33 18 WNW 20 55 0,0
18.05.2019 12:00:00 7,7 1,1 14 8 32 17 WNW 20 42 0,0
18.05.2019 11:00:00 6,5 1,1 15 8 33 18 WNW 20 53 0,0
18.05.2019 10:00:00 4,4 0,4 14 8 83 45 WNW 20 24 0,0
18.05.2019 09:00:00 3,0 0,9 11 6 23 12 WNW 20 3 0,0
18.05.2019 08:00:00 2,9 1,1 10 5 20 11 WNW 20 2 -
18.05.2019 07:00:00 3,2 1,1 11 6 18 10 W 20 0 0,0
18.05.2019 06:00:00 3,8 2,3 2 1 10 5 WNW 20 0 0,0
18.05.2019 05:00:00 3,6 2,5 4 2 9 5 WNW 20 0 0,0
18.05.2019 04:00:00 3,3 2,1 4 2 7 4 SSW 20 0 0,0
18.05.2019 03:00:00 3,8 2,1 3 2 9 5 SSE 20 0 0,0
18.05.2019 02:00:00 5,0 2,1 4 2 16 8 SSW 20 0 -
18.05.2019 01:00:00 5,3 2,7 3 1 12 7 NNW 20 0 0,0
18.05.2019 00:00:00 5,8 3,0 3 1 6 4 S 20 0 0,0
17.05.2019 23:00:00 6,0 2,3 3 2 13 7 S 20 0 0,0
17.05.2019 22:00:00 6,2 1,1 3 2 12 6 NW 20 0 0,0
17.05.2019 21:00:00 7,6 1,5 9 5 21 12 N 20 23 0,0
17.05.2019 20:00:00 8,4 1,5 12 6 31 17 NNW 20 29 -
17.05.2019 19:00:00 9,6 1,9 15 8 31 17 NNW 20 45 0,0
17.05.2019 18:00:00 9,7 2,3 17 9 37 20 WNW 20 13 0,0
17.05.2019 17:00:00 8,3 2,1 16 9 35 19 WNW 20 0 0,0
17.05.2019 16:00:00 8,2 2,7 19 10 - - NW 20 0 0,0
17.05.2019 15:00:00 7,1 2,9 16 9 - - NW 20 0 0,0
17.05.2019 14:00:00 6,9 2,3 - - - - - 20 0 -

tt = temperature
td = dewpoint
ff = wind speed
fx = gusts
dd = wind direction
vv = visibility
sd = sunshine duration
rr = precipitation

Next stations